Time;durP1;ratioP1;P1;durP2;ratioP2;P2;SDS_P1;SDS_P2;PMS_P1;PMS_P2;Temp;Humidity;BMP_temperature;BMP_pressure;BME280_temperature;BME280_humidity;BME280_pressure;Samples;Min_cycle;Max_cycle;Signal;HPM_P1;HPM_P2
2022/12/07 00:01:49;;;;;;;2.35;1.30;;;;;;;3.97;100.00;101749.63;2614961;36;20026;-49
2022/12/07 00:04:20;;;;;;;4.43;1.85;;;;;;;3.93;100.00;101747.19;2614549;36;20034;-48
2022/12/07 00:06:52;;;;;;;3.08;1.50;;;;;;;3.89;100.00;101745.59;2615367;36;20027;-49
2022/12/07 00:09:21;;;;;;;3.58;1.55;;;;;;;3.84;100.00;101749.34;2615352;36;20034;-49
2022/12/07 00:11:54;;;;;;;3.05;1.70;;;;;;;3.84;100.00;101749.34;2614942;36;20598;-51
2022/12/07 00:14:23;;;;;;;2.45;1.58;;;;;;;3.94;100.00;101746.25;2615557;36;20019;-48
2022/12/07 00:16:52;;;;;;;;;;;;;;;4.03;100.00;101753.81;2615726;31;20026;-50
2022/12/07 00:19:21;;;;;;;4.82;1.67;;;;;;;4.08;100.00;101740.28;2615339;36;20456;-48
2022/12/07 00:21:49;;;;;;;3.90;1.70;;;;;;;4.11;100.00;101746.34;2614522;36;20038;-49
2022/12/07 00:24:17;;;;;;;3.67;1.52;;;;;;;4.18;100.00;101739.78;2614769;31;20038;-47
2022/12/07 00:26:46;;;;;;;3.15;1.70;;;;;;;4.20;100.00;101735.22;2613776;36;20031;-49
2022/12/07 00:29:19;;;;;;;2.00;1.40;;;;;;;4.13;100.00;101741.78;2614138;36;20027;-49
2022/12/07 00:31:48;;;;;;;3.58;1.60;;;;;;;4.15;100.00;101737.28;2613620;31;20058;-51
2022/12/07 00:34:19;;;;;;;5.97;1.85;;;;;;;4.02;100.00;101738.78;2614191;36;20053;-49
2022/12/07 00:36:48;;;;;;;3.85;1.80;;;;;;;3.94;100.00;101732.94;2615681;31;20042;-49
2022/12/07 00:39:16;;;;;;;4.47;1.45;;;;;;;3.87;100.00;101727.03;2613680;36;20498;-47
2022/12/07 00:41:45;;;;;;;4.00;1.42;;;;;;;3.87;100.00;101732.34;2615319;36;20050;-49
2022/12/07 00:44:13;;;;;;;2.55;1.40;;;;;;;3.84;100.00;101725.38;2614856;36;20466;-50
2022/12/07 00:46:45;;;;;;;3.50;1.45;;;;;;;3.81;100.00;101714.00;2615497;36;20261;-49
2022/12/07 00:49:13;;;;;;;4.22;1.70;;;;;;;3.96;100.00;101707.97;2615251;36;20030;-51
2022/12/07 00:51:42;;;;;;;1.73;1.20;;;;;;;4.01;100.00;101715.75;2615687;36;20033;-51
2022/12/07 00:54:10;;;;;;;2.30;1.33;;;;;;;4.04;100.00;101712.94;2615661;36;20428;-52
2022/12/07 00:56:38;;;;;;;3.47;2.10;;;;;;;4.02;100.00;101713.00;2614107;36;20035;-53
2022/12/07 00:59:07;;;;;;;2.42;1.42;;;;;;;4.03;100.00;101711.19;2614349;36;20034;-54
2022/12/07 01:01:38;;;;;;;3.70;1.80;;;;;;;4.01;100.00;101715.75;2614881;31;20118;-52
2022/12/07 01:04:09;;;;;;;4.57;1.55;;;;;;;3.94;100.00;101716.97;2615924;31;20038;-49
2022/12/07 01:06:38;;;;;;;3.05;0.98;;;;;;;3.96;100.00;101710.63;2615657;36;20022;-50
2022/12/07 01:09:07;;;;;;;5.07;1.35;;;;;;;3.91;100.00;101717.09;2615870;36;20029;-51
2022/12/07 01:11:35;;;;;;;3.53;1.30;;;;;;;3.79;100.00;101714.06;2615227;36;20042;-50
2022/12/07 01:14:04;;;;;;;5.13;1.33;;;;;;;3.71;100.00;101718.91;2612840;36;20043;-49
2022/12/07 01:16:34;;;;;;;4.05;1.10;;;;;;;3.60;100.00;101708.72;2614762;31;20539;-50
2022/12/07 01:19:04;;;;;;;3.95;1.40;;;;;;;3.60;100.00;101721.19;2614863;31;20033;-52
2022/12/07 01:21:37;;;;;;;1.98;1.27;;;;;;;3.54;100.00;101722.31;2615736;36;20049;-49
2022/12/07 01:24:08;;;;;;;3.47;1.10;;;;;;;3.39;100.00;101721.22;2615669;36;20052;-49
2022/12/07 01:26:36;;;;;;;4.70;1.50;;;;;;;3.39;100.00;101723.03;2614863;36;20031;-50
2022/12/07 01:29:04;;;;;;;3.50;1.40;;;;;;;3.33;100.00;101726.81;2613505;36;20038;-51
2022/12/07 01:31:33;;;;;;;4.80;1.10;;;;;;;3.23;100.00;101720.19;2614342;36;20547;-51
2022/12/07 01:34:03;;;;;;;4.10;1.48;;;;;;;3.17;100.00;101720.44;2615524;36;20506;-49
2022/12/07 01:36:36;;;;;;;3.10;1.55;;;;;;;3.19;100.00;101723.91;2614476;36;20073;-50
2022/12/07 01:39:07;;;;;;;5.22;1.25;;;;;;;3.11;100.00;101722.44;2615432;36;20030;-50
2022/12/07 01:41:39;;;;;;;5.22;1.20;;;;;;;3.15;100.00;101729.34;2614964;36;20034;-49
2022/12/07 01:44:20;;;;;;;2.10;0.90;;;;;;;3.25;100.00;101724.47;2615246;31;20034;-50
2022/12/07 01:46:50;;;;;;;4.10;1.08;;;;;;;3.20;100.00;101725.63;2613463;36;20034;-49
2022/12/07 01:49:39;;;;;;;;;;;;;;;3.34;100.00;101720.53;2615269;36;20022;-48
2022/12/07 01:52:17;;;;;;;3.38;1.30;;;;;;;3.25;100.00;101724.47;2615558;36;20042;-50
2022/12/07 01:54:47;;;;;;;3.80;0.95;;;;;;;3.35;100.00;101724.94;2614395;36;20033;-50
2022/12/07 01:57:18;;;;;;;5.22;1.42;;;;;;;3.49;100.00;101724.34;2615799;36;20494;-50
2022/12/07 01:59:49;;;;;;;9.93;1.52;;;;;;;3.45;100.00;101715.63;2615623;36;20031;-50
2022/12/07 02:02:22;;;;;;;3.90;1.00;;;;;;;3.58;100.00;101715.03;2614983;31;20035;-49
2022/12/07 02:04:51;;;;;;;4.53;1.15;;;;;;;3.59;100.00;101715.00;2615752;36;20031;-49
2022/12/07 02:07:23;;;;;;;7.05;2.10;;;;;;;3.65;100.00;101712.06;2614489;31;20677;-49
2022/12/07 02:09:51;;;;;;;8.75;1.40;;;;;;;3.84;100.00;101704.09;2615756;36;20038;-50
2022/12/07 02:12:20;;;;;;;3.58;1.50;;;;;;;3.91;100.00;101704.66;2614150;36;20030;-48
2022/12/07 02:14:48;;;;;;;4.18;1.40;;;;;;;4.04;100.00;101699.59;2614761;36;20034;-49
2022/12/07 02:17:24;;;;;;;4.65;1.23;;;;;;;4.07;100.00;101712.78;2613707;36;20034;-50
2022/12/07 02:20:15;;;;;;;7.43;1.30;;;;;;;4.25;100.00;101708.34;2614095;36;20030;-49
2022/12/07 02:23:02;;;;;;;7.78;1.42;;;;;;;4.43;100.00;101711.06;2615367;36;20558;-49
2022/12/07 02:25:44;;;;;;;6.65;1.30;;;;;;;4.59;100.00;101705.84;2616314;31;20549;-48
2022/12/07 02:28:21;;;;;;;3.67;1.10;;;;;;;4.72;100.00;101698.94;2614679;36;20020;-48
2022/12/07 02:30:54;;;;;;;7.90;1.08;;;;;;;4.71;100.00;101703.44;2614696;36;20035;-50
2022/12/07 02:33:30;;;;;;;8.60;1.58;;;;;;;4.89;100.00;101701.63;2614723;31;20037;-48
2022/12/07 02:36:04;;;;;;;7.45;1.10;;;;;;;4.82;100.00;101694.03;2615621;36;20037;-50
2022/12/07 02:38:40;;;;;;;5.30;1.05;;;;;;;4.81;100.00;101693.16;2616463;31;20023;-48
2022/12/07 02:41:15;;;;;;;3.65;1.20;;;;;;;4.80;100.00;101702.09;2615410;36;20038;-47
2022/12/07 02:43:48;;;;;;;3.13;0.80;;;;;;;4.85;100.00;101702.72;2615801;36;20034;-47
2022/12/07 02:46:24;;;;;;;7.30;1.20;;;;;;;4.78;100.00;101700.44;2614695;36;20054;-49
2022/12/07 02:51:49;;;;;;;6.88;1.02;;;;;;;4.77;100.00;101686.25;2614752;36;20056;-52
2022/12/07 02:54:19;;;;;;;8.23;1.25;;;;;;;4.77;100.00;101691.59;2615957;36;20030;-49
2022/12/07 02:56:51;;;;;;;3.53;0.80;;;;;;;4.70;100.00;101691.03;2615127;36;20034;-48
2022/12/07 02:59:31;;;;;;;4.50;1.10;;;;;;;4.64;100.00;101690.47;2615048;36;20030;-51
2022/12/07 03:02:13;;;;;;;3.17;1.20;;;;;;;4.48;100.00;101685.91;2614955;36;20479;-49
2022/12/07 03:04:52;;;;;;;4.10;0.80;;;;;;;4.34;100.00;101688.41;2614199;36;20026;-49
2022/12/07 03:07:28;;;;;;;5.82;1.15;;;;;;;4.27;100.00;101693.19;2616465;36;20393;-51
2022/12/07 03:10:05;;;;;;;3.78;0.80;;;;;;;4.08;100.00;101689.66;2615737;36;20030;-55
2022/12/07 03:12:37;;;;;;;2.45;0.98;;;;;;;3.97;100.00;101690.19;2615010;36;20045;-52
2022/12/07 03:15:11;;;;;;;3.10;0.65;;;;;;;3.87;100.00;101695.06;2616014;36;20027;-52
2022/12/07 03:17:45;;;;;;;2.15;0.80;;;;;;;3.89;100.00;101692.31;2615374;36;20034;-49
2022/12/07 03:20:18;;;;;;;2.67;0.90;;;;;;;3.87;100.00;101697.72;2615416;36;20023;-49
2022/12/07 03:22:49;;;;;;;2.83;0.90;;;;;;;3.84;100.00;101698.75;2614959;36;20030;-49
2022/12/07 03:25:19;;;;;;;2.55;0.80;;;;;;;3.90;100.00;101699.38;2615318;36;20023;-49
2022/12/07 03:27:55;;;;;;;3.78;1.08;;;;;;;3.89;100.00;101697.66;2614094;36;20026;-51
2022/12/07 03:30:27;;;;;;;3.30;0.80;;;;;;;3.85;100.00;101684.47;2614579;36;21258;-49
2022/12/07 03:33:05;;;;;;;3.78;0.82;;;;;;;3.84;100.00;101674.78;2614273;36;20043;-48
2022/12/07 03:35:39;;;;;;;3.00;1.67;;;;;;;3.88;100.00;101688.81;2615218;36;20491;-52
2022/12/07 03:38:16;;;;;;;3.25;1.00;;;;;;;3.95;100.00;101692.06;2614843;36;20303;-48
2022/12/07 03:40:52;;;;;;;4.45;1.40;;;;;;;4.02;100.00;101693.50;2615193;36;20030;-48
2022/12/07 03:43:21;;;;;;;6.57;0.90;;;;;;;4.12;100.00;101689.47;2615409;36;20032;-49
2022/12/07 03:46:01;;;;;;;2.80;0.93;;;;;;;4.13;100.00;101680.50;2615368;36;20030;-47
2022/12/07 03:48:38;;;;;;;7.30;1.08;;;;;;;4.18;100.00;101677.63;2615540;36;20030;-48
2022/12/07 03:51:14;;;;;;;2.05;0.80;;;;;;;4.29;100.00;101664.63;2615972;31;20405;-48
2022/12/07 03:53:49;;;;;;;7.82;0.90;;;;;;;4.31;100.00;101667.22;2615714;36;20031;-48
2022/12/07 03:56:18;;;;;;;5.22;1.30;;;;;;;4.30;100.00;101662.81;2615399;36;20065;-48
2022/12/07 03:58:46;;;;;;;8.13;0.73;;;;;;;4.24;100.00;101665.78;2614183;36;20426;-48
2022/12/07 04:01:15;;;;;;;3.45;0.90;;;;;;;4.10;100.00;101664.66;2613842;36;20038;-48
2022/12/07 04:03:46;;;;;;;2.38;1.30;;;;;;;4.01;100.00;101667.78;2615756;36;20444;-49
2022/12/07 04:06:14;;;;;;;4.03;1.05;;;;;;;3.94;100.00;101669.03;2614982;36;20062;-49
2022/12/07 04:08:42;;;;;;;2.30;0.87;;;;;;;3.90;100.00;101670.09;2614648;31;20026;-48
2022/12/07 04:11:11;;;;;;;1.63;0.90;;;;;;;3.79;100.00;101662.63;2614913;31;20705;-49
2022/12/07 04:16:20;;;;;;;3.08;1.30;;;;;;;3.63;100.00;101666.00;2615035;36;20046;-48
2022/12/07 04:18:51;;;;;;;1.25;0.75;;;;;;;3.62;100.00;101674.06;2615924;36;20034;-48
2022/12/07 04:21:19;;;;;;;3.25;1.00;;;;;;;3.55;100.00;101676.16;2613393;36;20034;-48
2022/12/07 04:23:47;;;;;;;7.13;1.05;;;;;;;3.50;100.00;101673.69;2615902;36;20042;-49
2022/12/07 04:26:15;;;;;;;3.47;1.10;;;;;;;3.53;100.00;101669.16;2616036;36;20053;-50
2022/12/07 04:28:44;;;;;;;5.10;0.98;;;;;;;3.49;100.00;101671.13;2615646;36;20789;-50
2022/12/07 04:31:12;;;;;;;2.78;1.20;;;;;;;3.42;100.00;101670.50;2615312;36;20444;-51
2022/12/07 04:33:40;;;;;;;2.30;0.82;;;;;;;3.45;100.00;101666.84;2616071;31;20031;-50
2022/12/07 04:36:11;;;;;;;2.92;1.00;;;;;;;3.45;100.00;101670.38;2616626;31;20046;-49
2022/12/07 04:38:40;;;;;;;4.75;1.27;;;;;;;3.58;100.00;101667.13;2615601;36;20030;-48
2022/12/07 04:41:09;;;;;;;3.65;0.93;;;;;;;3.63;100.00;101662.47;2616116;36;20034;-48
2022/12/07 04:43:37;;;;;;;2.78;0.95;;;;;;;3.66;100.00;101665.00;2616383;36;20042;-48
2022/12/07 04:46:06;;;;;;;1.60;0.75;;;;;;;3.65;100.00;101668.56;2615757;36;20041;-48
2022/12/07 04:48:35;;;;;;;4.10;0.80;;;;;;;3.70;100.00;101663.06;2615480;36;20031;-50
2022/12/07 04:51:06;;;;;;;4.07;1.90;;;;;;;3.73;100.00;101665.59;2616150;31;20034;-50
2022/12/07 04:53:36;;;;;;;7.03;1.35;;;;;;;3.82;100.00;101666.00;2616108;36;20303;-48
2022/12/07 04:56:05;;;;;;;2.75;1.77;;;;;;;3.72;100.00;101669.16;2616832;36;20393;-49
2022/12/07 04:58:40;;;;;;;1.70;0.90;;;;;;;3.62;100.00;101671.38;2616658;39;20454;-49
2022/12/07 05:01:10;;;;;;;8.18;1.80;;;;;;;3.55;100.00;101675.25;2614921;31;20590;-49
2022/12/07 05:03:39;;;;;;;3.50;1.20;;;;;;;3.54;100.00;101660.25;2616136;31;20031;-48
2022/12/07 05:06:08;;;;;;;11.13;1.50;;;;;;;3.47;100.00;101665.84;2615951;36;20138;-49
2022/12/07 05:08:39;;;;;;;4.10;1.40;;;;;;;3.40;100.00;101664.41;2616780;36;20450;-49
2022/12/07 05:11:09;;;;;;;5.47;1.60;;;;;;;3.36;100.00;101664.59;2616143;31;20030;-49
2022/12/07 05:13:38;;;;;;;5.20;1.38;;;;;;;3.32;100.00;101666.53;2616396;36;20027;-50
2022/12/07 05:16:07;;;;;;;6.28;1.30;;;;;;;3.12;100.00;101665.66;2615355;36;20034;-49
2022/12/07 05:18:36;;;;;;;7.68;1.50;;;;;;;3.05;100.00;101668.63;2616166;31;20030;-50
2022/12/07 05:21:04;;;;;;;3.72;0.95;;;;;;;2.99;100.00;101664.47;2614999;36;20590;-49
2022/12/07 05:23:32;;;;;;;2.28;1.20;;;;;;;2.98;100.00;101657.41;2615505;36;20022;-51
2022/12/07 05:26:03;;;;;;;2.85;1.23;;;;;;;2.91;100.00;101658.59;2615909;36;20030;-48
2022/12/07 05:28:32;;;;;;;2.00;1.10;;;;;;;2.88;100.00;101658.75;2615744;36;20116;-50
2022/12/07 05:31:00;;;;;;;3.05;1.40;;;;;;;2.78;100.00;101659.16;2614618;36;20038;-49
2022/12/07 05:33:29;;;;;;;3.43;1.03;;;;;;;2.77;100.00;101657.41;2614315;36;20035;-50
2022/12/07 05:35:57;;;;;;;3.33;1.20;;;;;;;2.73;100.00;101662.94;2615883;36;20034;-49
2022/12/07 05:38:26;;;;;;;5.80;1.48;;;;;;;2.72;100.00;101667.38;2616398;31;20041;-50
2022/12/07 05:40:54;;;;;;;5.38;1.20;;;;;;;2.70;100.00;101661.25;2615849;36;20050;-50
2022/12/07 05:43:25;;;;;;;4.13;1.83;;;;;;;2.71;100.00;101655.03;2615866;36;20547;-50
2022/12/07 05:45:53;;;;;;;4.15;1.50;;;;;;;2.77;100.00;101664.53;2616363;31;20037;-50
2022/12/07 05:48:21;;;;;;;2.60;1.20;;;;;;;2.78;100.00;101650.28;2615212;36;20071;-50
2022/12/07 05:50:50;;;;;;;2.47;1.20;;;;;;;2.79;100.00;101652.03;2615651;36;20061;-51
2022/12/07 05:53:19;;;;;;;1.50;0.90;;;;;;;2.83;100.00;101655.41;2614654;36;20031;-54
2022/12/07 05:55:47;;;;;;;7.10;1.60;;;;;;;2.79;100.00;101660.84;2615608;31;20710;-50
2022/12/07 06:00:59;;;;;;;5.45;1.70;;;;;;;2.83;100.00;101645.66;2614768;36;20035;-49
2022/12/07 06:03:27;;;;;;;2.80;1.30;;;;;;;2.80;100.00;101643.13;2614356;36;20022;-51
2022/12/07 06:05:56;;;;;;;3.90;1.20;;;;;;;2.76;100.00;101646.84;2615618;36;20439;-50
2022/12/07 06:08:24;;;;;;;2.57;1.07;;;;;;;2.76;100.00;101636.22;2613441;36;20026;-52
2022/12/07 06:12:33;;;;;;;4.93;1.08;;;;;;;2.66;100.00;101643.72;2612494;36;20125;-51
2022/12/07 06:13:38;;;;;;;7.77;1.43;;;;;;;2.59;100.00;101644.91;2614532;36;20030;-50
2022/12/07 06:16:10;;;;;;;4.53;1.30;;;;;;;2.62;100.00;101647.41;2614368;36;20295;-50
2022/12/07 06:18:38;;;;;;;3.90;1.30;;;;;;;2.60;100.00;101641.31;2614078;36;20034;-51
2022/12/07 06:21:07;;;;;;;5.75;1.52;;;;;;;2.50;100.00;101643.50;2614439;36;20419;-50
2022/12/07 06:23:35;;;;;;;2.08;1.15;;;;;;;2.52;100.00;101649.63;2614611;36;20035;-50
2022/12/07 06:26:03;;;;;;;7.68;1.98;;;;;;;2.57;100.00;101644.13;2615409;36;20033;-50
2022/12/07 06:28:32;;;;;;;5.32;1.70;;;;;;;2.56;100.00;101655.66;2615742;36;20031;-50
2022/12/07 06:31:01;;;;;;;5.35;1.60;;;;;;;2.46;100.00;101644.56;2613316;36;20045;-53
2022/12/07 06:33:33;;;;;;;4.53;1.80;;;;;;;2.43;100.00;101647.38;2613648;36;20077;-56
2022/12/07 06:36:01;;;;;;;5.38;1.55;;;;;;;2.50;100.00;101646.16;2614237;36;20038;-55
2022/12/07 06:38:30;;;;;;;6.63;1.67;;;;;;;2.39;100.00;101646.63;2615183;36;20041;-56
2022/12/07 06:40:58;;;;;;;5.73;1.80;;;;;;;2.36;100.00;101646.75;2613543;36;20049;-52
2022/12/07 06:43:27;;;;;;;5.88;1.40;;;;;;;2.42;100.00;101649.13;2615437;36;20304;-52
2022/12/07 06:45:55;;;;;;;7.00;1.13;;;;;;;2.34;100.00;101642.41;2615759;36;20030;-57
2022/12/07 06:48:23;;;;;;;5.72;1.40;;;;;;;2.32;100.00;101653.09;2615512;36;20030;-53
2022/12/07 06:50:54;;;;;;;3.08;1.48;;;;;;;2.39;100.00;101654.59;2614059;31;20058;-51
2022/12/07 06:53:23;;;;;;;8.32;1.95;;;;;;;2.42;100.00;101662.41;2615103;36;20034;-55
2022/12/07 06:55:51;;;;;;;2.42;1.30;;;;;;;2.45;100.00;101651.66;2615564;36;20038;-54
2022/12/07 06:58:20;;;;;;;5.75;1.83;;;;;;;2.44;100.00;101657.94;2612752;36;20612;-54
2022/12/07 07:00:50;;;;;;;6.38;1.80;;;;;;;2.40;100.00;101661.63;2613633;36;20038;-55
2022/12/07 07:03:19;;;;;;;9.25;2.20;;;;;;;2.51;100.00;101655.00;2614890;36;20034;-55
2022/12/07 07:05:48;;;;;;;5.18;2.10;;;;;;;2.62;100.00;101652.75;2616174;36;20427;-56
2022/12/07 07:08:19;;;;;;;7.35;2.00;;;;;;;2.64;100.00;101650.91;2614974;36;20030;-56
2022/12/07 07:10:47;;;;;;;3.28;1.98;;;;;;;2.55;100.00;101661.94;2614529;36;20030;-53
2022/12/07 07:13:15;;;;;;;5.55;2.38;;;;;;;2.57;100.00;101662.72;2615693;36;20034;-54
2022/12/07 07:15:44;;;;;;;6.70;2.40;;;;;;;2.61;100.00;101664.31;2615558;36;20032;-52
2022/12/07 07:18:12;;;;;;;4.07;2.20;;;;;;;2.72;100.00;101672.69;2613822;36;20590;-52
2022/12/07 07:20:41;;;;;;;10.83;3.13;;;;;;;2.88;100.00;101688.00;2614978;36;20027;-51
2022/12/07 07:23:09;;;;;;;5.05;1.85;;;;;;;2.93;100.00;101692.19;2614760;36;20038;-52
2022/12/07 07:25:40;;;;;;;4.70;2.30;;;;;;;3.05;100.00;101687.25;2614855;36;20087;-56
2022/12/07 07:28:09;;;;;;;6.88;1.98;;;;;;;3.10;100.00;101694.09;2616060;36;20432;-54
2022/12/07 07:30:40;;;;;;;11.30;2.72;;;;;;;3.12;100.00;101678.06;2615159;47;20547;-50
2022/12/07 07:33:09;;;;;;;6.35;2.30;;;;;;;3.23;100.00;101664.31;2613829;36;20038;-52
2022/12/07 07:35:38;;;;;;;15.57;5.22;;;;;;;3.31;100.00;101671.00;2615605;31;20034;-55
2022/12/07 07:38:07;;;;;;;15.52;5.75;;;;;;;3.26;100.00;101683.66;2616172;36;20570;-55
2022/12/07 07:40:36;;;;;;;12.95;4.70;;;;;;;3.24;100.00;101684.63;2615410;36;20034;-53
2022/12/07 07:43:07;;;;;;;17.33;5.90;;;;;;;3.10;100.00;101675.47;2613983;36;20571;-51
2022/12/07 07:45:35;;;;;;;16.83;6.82;;;;;;;3.04;100.00;101672.25;2614105;36;20546;-52
2022/12/07 07:48:07;;;;;;;15.73;5.70;;;;;;;3.03;100.00;101670.50;2615723;36;20031;-49
2022/12/07 07:50:35;;;;;;;16.02;6.68;;;;;;;2.99;100.00;101667.13;2616078;36;20023;-47
2022/12/07 07:53:04;;;;;;;16.58;5.55;;;;;;;3.01;100.00;101667.06;2616168;36;20037;-55
2022/12/07 07:55:32;;;;;;;13.57;5.28;;;;;;;2.98;100.00;101670.72;2616461;36;20034;-48
2022/12/07 07:58:01;;;;;;;13.63;4.75;;;;;;;2.94;100.00;101677.09;2611095;36;20122;-55
2022/12/07 08:00:32;;;;;;;8.82;4.10;;;;;;;2.85;100.00;101672.19;2615148;36;20057;-49
2022/12/07 08:03:00;;;;;;;8.40;3.47;;;;;;;2.83;100.00;101674.00;2615801;36;20396;-50
2022/12/07 08:05:28;;;;;;;6.82;2.97;;;;;;;2.82;100.00;101673.16;2615459;36;20414;-54
2022/12/07 08:07:56;;;;;;;8.23;3.35;;;;;;;2.84;100.00;101681.06;2614516;36;20030;-52
2022/12/07 08:10:25;;;;;;;4.53;2.60;;;;;;;2.82;100.00;101686.47;2609046;36;20414;-50
2022/12/07 08:15:50;;;;;;;5.28;2.47;;;;;;;2.85;100.00;101693.44;2613737;36;20030;-48
2022/12/07 08:18:18;;;;;;;6.00;2.70;;;;;;;2.87;100.00;101688.91;2615569;36;20340;-51
2022/12/07 08:20:47;;;;;;;5.60;2.45;;;;;;;2.96;100.00;101688.53;2615768;36;20037;-50
2022/12/07 08:23:15;;;;;;;6.30;2.40;;;;;;;3.05;100.00;101696.09;2616669;36;20442;-50
2022/12/07 08:25:43;;;;;;;10.20;3.17;;;;;;;3.14;100.00;101689.53;2614778;36;20030;-51
2022/12/07 08:28:12;;;;;;;12.90;3.33;;;;;;;3.29;100.00;101693.28;2616285;36;20034;-52
2022/12/07 08:30:40;;;;;;;8.45;3.15;;;;;;;3.28;100.00;101686.22;2615929;36;20053;-49
2022/12/07 08:33:11;;;;;;;10.02;3.42;;;;;;;3.30;100.00;101695.03;2615683;36;20057;-48
2022/12/07 08:35:40;;;;;;;9.30;3.58;;;;;;;3.35;100.00;101698.34;2615040;36;20030;-49
2022/12/07 08:38:08;;;;;;;13.13;3.10;;;;;;;3.35;100.00;101693.00;2615907;36;20037;-49
2022/12/07 08:40:37;;;;;;;10.40;2.65;;;;;;;3.37;100.00;101695.59;2615577;36;20434;-48
2022/12/07 08:43:05;;;;;;;6.72;2.85;;;;;;;3.34;100.00;101699.25;2616035;36;20030;-48
2022/12/07 08:45:35;;;;;;;7.45;2.78;;;;;;;3.41;100.00;101697.19;2615224;36;20034;-48
2022/12/07 08:48:10;;;;;;;5.78;3.10;;;;;;;3.39;100.00;101699.06;2615139;36;20042;-49
2022/12/07 08:50:42;;;;;;;7.38;2.50;;;;;;;3.40;100.00;101691.03;2616307;36;20030;-48
2022/12/07 08:53:10;;;;;;;6.95;2.45;;;;;;;3.37;100.00;101688.47;2615932;36;20030;-48
2022/12/07 08:55:38;;;;;;;6.25;2.83;;;;;;;3.38;100.00;101681.38;2615958;36;20029;-50
2022/12/07 08:58:07;;;;;;;6.68;2.63;;;;;;;3.36;100.00;101681.44;2614856;36;20042;-48
2022/12/07 09:00:35;;;;;;;5.57;2.40;;;;;;;3.36;100.00;101668.13;2615237;36;20065;-49
2022/12/07 09:03:03;;;;;;;6.32;3.40;;;;;;;3.41;100.00;101676.75;2614527;36;20034;-49
2022/12/07 09:05:32;;;;;;;6.88;2.95;;;;;;;3.42;100.00;101678.50;2615508;36;20030;-49
2022/12/07 09:08:04;;;;;;;9.13;2.75;;;;;;;3.55;100.00;101677.94;2615192;36;20034;-48
2022/12/07 09:10:32;;;;;;;10.07;2.83;;;;;;;3.69;100.00;101678.16;2608148;36;20034;-50
2022/12/07 09:13:01;;;;;;;12.48;3.22;;;;;;;3.93;100.00;101675.28;2609392;36;20034;-54
2022/12/07 09:15:30;;;;;;;7.90;2.90;;;;;;;3.88;100.00;101677.31;2615585;36;20166;-51
2022/12/07 09:17:58;;;;;;;7.20;2.72;;;;;;;3.88;100.00;101680.81;2615314;36;20162;-53
2022/12/07 09:20:26;;;;;;;7.95;2.80;;;;;;;3.88;100.00;101680.81;2615508;36;20045;-56
2022/12/07 09:22:55;;;;;;;14.50;3.85;;;;;;;3.88;100.00;101679.97;2616445;36;20035;-52
2022/12/07 09:25:26;;;;;;;6.35;2.90;;;;;;;3.93;100.00;101669.94;2614818;36;20022;-54
2022/12/07 09:27:59;;;;;;;12.38;3.72;;;;;;;3.91;100.00;101677.16;2616567;36;20029;-49
2022/12/07 09:30:31;;;;;;;7.68;3.22;;;;;;;3.96;100.00;101675.13;2614336;36;20845;-56
2022/12/07 09:32:59;;;;;;;15.75;2.83;;;;;;;4.26;100.00;101671.94;2617242;36;20026;-50
2022/12/07 09:35:29;;;;;;;4.85;2.63;;;;;;;4.52;100.00;101671.50;2617383;31;20605;-58
2022/12/07 09:37:57;;;;;;;6.30;2.75;;;;;;;4.65;100.00;101677.09;2615512;36;20038;-57
2022/12/07 09:40:28;;;;;;;8.50;2.20;;;;;;;4.79;100.00;101680.84;2614838;31;20041;-54
2022/12/07 09:42:57;;;;;;;13.13;3.22;;;;;;;4.98;100.00;101686.09;2615954;36;20026;-50
2022/12/07 09:45:29;;;;;;;6.00;2.47;;;;;;;5.21;100.00;101682.22;2615940;36;20034;-52
2022/12/07 09:47:58;;;;;;;6.82;2.33;;;;;;;5.39;100.00;101683.06;2615958;36;20130;-48
2022/12/07 09:50:29;;;;;;;8.40;2.30;;;;;;;5.53;100.00;101690.31;2616471;36;20423;-54
2022/12/07 09:53:14;;;;;;;5.13;1.98;;;;;;;5.39;100.00;101683.06;2616017;31;20030;-55
2022/12/07 09:55:46;;;;;;;3.95;1.80;;;;;;;5.28;100.00;101675.59;2615808;36;20026;-57
2022/12/07 09:58:22;;;;;;;6.20;1.98;;;;;;;5.43;100.00;101685.47;2615063;31;20118;-57
2022/12/07 10:00:50;;;;;;;5.85;1.80;;;;;;;5.48;100.00;101677.22;2614901;36;20034;-55
2022/12/07 10:03:19;;;;;;;3.95;1.83;;;;;;;5.33;100.00;101662.00;2615636;36;20031;-52
2022/12/07 10:05:50;;;;;;;3.55;1.23;;;;;;;5.36;100.00;101672.50;2614985;36;20058;-54
2022/12/07 10:08:20;;;;;;;9.10;1.88;;;;;;;5.26;100.00;101661.50;2616236;31;20482;-53
2022/12/07 10:10:53;;;;;;;7.68;2.00;;;;;;;5.24;100.00;101666.91;2615662;36;20030;-48
2022/12/07 10:13:24;;;;;;;4.93;1.85;;;;;;;5.41;100.00;101660.66;2608395;36;20038;-50
2022/12/07 10:15:58;;;;;;;6.13;1.92;;;;;;;5.50;100.00;101658.44;2615446;36;20034;-50
2022/12/07 10:18:32;;;;;;;4.03;1.73;;;;;;;5.54;100.00;101655.50;2615631;36;20038;-50
2022/12/07 10:21:16;;;;;;;3.47;1.60;;;;;;;5.52;100.00;101654.75;2615750;36;20030;-50
2022/12/07 10:24:00;;;;;;;6.45;1.60;;;;;;;5.64;100.00;101637.19;2615624;36;20125;-48
2022/12/07 10:26:34;;;;;;;5.20;1.77;;;;;;;5.68;100.00;101646.72;2615379;36;20038;-49
2022/12/07 10:29:14;;;;;;;3.50;1.58;;;;;;;5.64;100.00;101647.00;2615813;36;20427;-49
2022/12/07 10:31:44;;;;;;;4.85;1.15;;;;;;;5.54;100.00;101639.50;2614887;36;20034;-49
2022/12/07 10:34:24;;;;;;;6.72;1.30;;;;;;;5.58;100.00;101638.38;2614995;36;20034;-49
2022/12/07 10:36:53;;;;;;;4.78;1.10;;;;;;;5.66;100.00;101631.75;2615580;36;20034;-50
2022/12/07 10:39:23;;;;;;;5.57;1.30;;;;;;;5.69;100.00;101626.25;2615063;36;20038;-48
2022/12/07 10:42:02;;;;;;;5.85;1.38;;;;;;;5.65;100.00;101635.38;2615133;36;20038;-48
2022/12/07 10:44:32;;;;;;;3.50;1.08;;;;;;;5.70;100.00;101628.81;2614036;36;20034;-48
2022/12/07 10:47:17;;;;;;;4.28;1.85;;;;;;;5.79;100.00;101630.97;2614819;36;20600;-50
2022/12/07 10:50:15;;;;;;;4.68;1.45;;;;;;;5.99;100.00;101628.16;2616543;31;20037;-48
2022/12/07 10:53:09;;;;;;;4.93;1.00;;;;;;;5.95;100.00;101622.97;2615417;36;20438;-48
2022/12/07 10:55:50;;;;;;;4.68;1.27;;;;;;;6.10;100.00;101615.91;2614200;36;20038;-48
2022/12/07 10:58:45;;;;;;;6.25;1.35;;;;;;;6.23;100.00;101613.38;2615801;36;20038;-49
2022/12/07 11:01:20;;;;;;;4.18;1.30;;;;;;;6.32;100.00;101612.00;2613187;36;20042;-50
2022/12/07 11:04:05;;;;;;;6.53;1.58;;;;;;;6.45;100.00;101609.47;2613644;36;20044;-49
2022/12/07 11:06:40;;;;;;;6.22;1.33;;;;;;;6.44;100.00;101602.38;2615620;36;20041;-51
2022/12/07 11:09:35;;;;;;;4.13;1.17;;;;;;;6.36;100.00;101599.28;2615057;36;20426;-51
2022/12/07 11:12:12;;;;;;;5.88;1.50;;;;;;;6.37;100.00;101595.66;2615260;36;20034;-50
2022/12/07 11:14:53;;;;;;;5.53;1.17;;;;;;;6.37;100.00;101591.19;2615555;31;20037;-49
2022/12/07 11:17:30;;;;;;;6.70;1.58;;;;;;;6.39;100.00;101591.09;2615214;36;20031;-48
2022/12/07 11:20:07;;;;;;;7.88;1.50;;;;;;;6.34;100.00;101601.19;2614948;36;20041;-50
2022/12/07 11:22:45;;;;;;;6.60;1.40;;;;;;;6.41;100.00;101595.41;2608975;36;20451;-50
2022/12/07 11:25:25;;;;;;;5.57;1.60;;;;;;;6.38;100.00;101594.72;2615236;36;20574;-49
2022/12/07 11:28:05;;;;;;;4.50;1.17;;;;;;;6.42;100.00;101593.56;2614848;36;20065;-50
2022/12/07 11:30:44;;;;;;;6.57;1.33;;;;;;;6.55;100.00;101589.25;2607756;36;21098;-50
2022/12/07 11:33:21;;;;;;;5.78;1.08;;;;;;;6.72;100.00;101592.72;2614083;36;20031;-49
2022/12/07 11:36:07;;;;;;;7.72;1.77;;;;;;;6.88;100.00;101587.28;2614021;31;20443;-51
2022/12/07 11:38:45;;;;;;;4.95;1.20;;;;;;;7.06;100.00;101587.97;2615248;36;20565;-51
2022/12/07 11:41:16;;;;;;;7.28;1.30;;;;;;;7.06;100.00;101582.59;2614992;36;20558;-51
2022/12/07 11:44:07;;;;;;;9.48;1.45;;;;;;;7.13;100.00;101576.75;2615049;36;20025;-52
2022/12/07 11:46:49;;;;;;;4.10;1.35;;;;;;;7.18;100.00;101577.34;2614535;36;20056;-49
2022/12/07 11:49:28;;;;;;;4.05;1.55;;;;;;;7.32;100.00;101575.63;2616554;31;20019;-49
2022/12/07 11:52:02;;;;;;;6.95;1.38;;;;;;;7.28;100.00;101566.91;2615109;36;20031;-50
2022/12/07 11:54:34;;;;;;;2.78;1.10;;;;;;;7.45;100.00;101557.81;2615062;36;20030;-49
2022/12/07 11:57:06;;;;;;;5.97;1.27;;;;;;;7.41;100.00;101545.56;2615499;36;20041;-48